Time;durP1;ratioP1;P1;durP2;ratioP2;P2;SDS_P1;SDS_P2;PMS_P1;PMS_P2;Temp;Humidity;BMP_temperature;BMP_pressure;BME280_temperature;BME280_humidity;BME280_pressure;Samples;Min_cycle;Max_cycle;Signal;HPM_P1;HPM_P2
2022/03/08 00:00:56;;;;;;;27.45;13.90;;;;;;;;;;4954213;29;20047;-66
2022/03/08 00:03:23;;;;;;;23.92;12.95;;;;;;;;;;4954122;28;20126;-67
2022/03/08 00:05:51;;;;;;;23.52;13.68;;;;;;;;;;4953939;29;20139;-67
2022/03/08 00:08:19;;;;;;;24.90;14.35;;;;;;;;;;4953952;29;20055;-67
2022/03/08 00:10:46;;;;;;;26.40;14.23;;;;;;;;;;4953816;28;20150;-66
2022/03/08 00:13:14;;;;;;;29.92;16.50;;;;;;;;;;4954204;29;20130;-68
2022/03/08 00:15:41;;;;;;;25.35;14.55;;;;;;;;;;4953851;29;20430;-66
2022/03/08 00:18:08;;;;;;;24.45;14.32;;;;;;;;;;4953790;28;20082;-66
2022/03/08 00:20:35;;;;;;;28.30;14.02;;;;;;;;;;4953601;29;20050;-67
2022/03/08 00:23:02;;;;;;;22.35;12.32;;;;;;;;;;4954326;29;20130;-66
2022/03/08 00:25:31;;;;;;;24.38;13.55;;;;;;;;;;4953420;28;20055;-67
2022/03/08 00:27:58;;;;;;;24.58;12.93;;;;;;;;;;4953547;29;20051;-67
2022/03/08 00:30:27;;;;;;;25.42;13.15;;;;;;;;;;4953725;28;20084;-66
2022/03/08 00:32:55;;;;;;;25.42;13.38;;;;;;;;;;4954076;28;20429;-67
2022/03/08 00:35:24;;;;;;;25.83;13.05;;;;;;;;;;4953495;29;20131;-66
2022/03/08 00:37:51;;;;;;;25.77;13.60;;;;;;;;;;4953163;28;20504;-66
2022/03/08 00:40:20;;;;;;;21.48;12.15;;;;;;;;;;4952760;28;20428;-66
2022/03/08 00:42:49;;;;;;;23.92;12.82;;;;;;;;;;4951676;29;20400;-67
2022/03/08 00:45:16;;;;;;;24.73;12.02;;;;;;;;;;4953204;28;20089;-66
2022/03/08 00:47:43;;;;;;;19.90;11.90;;;;;;;;;;4953588;29;20054;-66
2022/03/08 00:50:13;;;;;;;23.13;12.10;;;;;;;;;;4953695;29;20058;-66
2022/03/08 00:52:40;;;;;;;27.20;13.18;;;;;;;;;;4953572;29;20053;-65
2022/03/08 00:55:09;;;;;;;22.38;12.05;;;;;;;;;;4953428;29;20083;-66
2022/03/08 00:57:36;;;;;;;23.00;12.27;;;;;;;;;;4953314;28;20047;-65
2022/03/08 01:00:07;;;;;;;23.40;13.10;;;;;;;;;;4953514;29;20050;-66
2022/03/08 01:02:34;;;;;;;22.88;12.70;;;;;;;;;;4953573;29;20062;-67
2022/03/08 01:05:02;;;;;;;24.50;13.07;;;;;;;;;;4953639;28;20416;-67
2022/03/08 01:07:29;;;;;;;22.30;12.40;;;;;;;;;;4953573;29;20047;-67
2022/03/08 01:09:56;;;;;;;22.83;12.50;;;;;;;;;;4953245;29;20497;-67
2022/03/08 01:12:24;;;;;;;25.52;12.23;;;;;;;;;;4953465;28;20517;-67
2022/03/08 01:14:51;;;;;;;22.20;11.73;;;;;;;;;;4953345;29;20055;-66
2022/03/08 01:17:19;;;;;;;22.15;12.20;;;;;;;;;;4952988;29;20050;-66
2022/03/08 01:19:46;;;;;;;23.20;12.65;;;;;;;;;;4953236;29;20142;-67
2022/03/08 01:22:13;;;;;;;20.80;11.07;;;;;;;;;;4953060;29;20130;-66
2022/03/08 01:24:40;;;;;;;21.60;11.85;;;;;;;;;;4953273;29;20057;-67
2022/03/08 01:27:08;;;;;;;24.42;12.35;;;;;;;;;;4953748;29;20057;-67
2022/03/08 01:29:35;;;;;;;22.23;11.82;;;;;;;;;;4953561;28;20055;-66
2022/03/08 01:32:02;;;;;;;22.90;12.45;;;;;;;;;;4953195;28;20138;-67
2022/03/08 01:34:31;;;;;;;22.20;11.20;;;;;;;;;;4953251;29;20398;-65
2022/03/08 01:36:58;;;;;;;24.67;12.57;;;;;;;;;;4952782;28;20054;-67
2022/03/08 01:39:25;;;;;;;25.08;12.55;;;;;;;;;;4955833;28;20496;-66
2022/03/08 01:41:52;;;;;;;29.90;14.45;;;;;;;;;;4956902;29;20051;-64
2022/03/08 01:44:19;;;;;;;21.45;12.50;;;;;;;;;;4956734;29;20051;-66
2022/03/08 01:46:47;;;;;;;25.58;12.82;;;;;;;;;;4956202;29;20580;-64
2022/03/08 01:49:16;;;;;;;25.45;12.50;;;;;;;;;;4956414;28;20063;-66
2022/03/08 01:51:44;;;;;;;23.17;13.43;;;;;;;;;;4956698;28;20453;-64
2022/03/08 01:54:11;;;;;;;24.88;13.30;;;;;;;;;;4956816;28;20057;-63
2022/03/08 01:56:40;;;;;;;24.65;13.57;;;;;;;;;;4956588;28;20055;-64
2022/03/08 01:59:07;;;;;;;24.17;14.18;;;;;;;;;;4956419;29;20043;-64
2022/03/08 02:01:34;;;;;;;25.20;13.02;;;;;;;;;;4956427;29;20126;-64
2022/03/08 02:04:01;;;;;;;24.45;12.82;;;;;;;;;;4956578;28;20552;-64
2022/03/08 02:06:28;;;;;;;25.30;13.23;;;;;;;;;;4956339;29;20057;-64
2022/03/08 02:08:57;;;;;;;24.80;13.18;;;;;;;;;;4956503;28;20051;-64
2022/03/08 02:11:24;;;;;;;22.88;12.70;;;;;;;;;;4956485;28;20419;-64
2022/03/08 02:13:51;;;;;;;26.58;13.82;;;;;;;;;;4966423;23;20559;-63
2022/03/08 02:16:18;;;;;;;25.67;12.73;;;;;;;;;;4956125;28;20143;-63
2022/03/08 02:18:45;;;;;;;23.23;12.15;;;;;;;;;;4950449;28;20507;-63
2022/03/08 02:21:14;;;;;;;23.27;13.27;;;;;;;;;;4937408;29;20485;-63
2022/03/08 02:23:41;;;;;;;21.58;12.35;;;;;;;;;;4937251;29;20428;-62
2022/03/08 02:26:08;;;;;;;23.55;13.00;;;;;;;;;;4937331;29;20127;-63
2022/03/08 02:28:35;;;;;;;23.35;13.45;;;;;;;;;;4937233;29;20115;-63
2022/03/08 02:31:02;;;;;;;24.83;13.32;;;;;;;;;;4937395;29;20206;-62
2022/03/08 02:33:29;;;;;;;25.58;12.80;;;;;;;;;;4937053;29;20348;-63
2022/03/08 02:35:56;;;;;;;25.67;13.63;;;;;;;;;;4937041;29;20093;-63
2022/03/08 02:38:25;;;;;;;24.40;12.57;;;;;;;;;;4937239;29;20475;-63
2022/03/08 02:40:52;;;;;;;26.38;13.05;;;;;;;;;;4936966;29;20062;-63
2022/03/08 02:43:19;;;;;;;23.42;12.70;;;;;;;;;;4937139;29;20417;-63
2022/03/08 02:45:46;;;;;;;23.63;12.27;;;;;;;;;;4955144;29;20079;-63
2022/03/08 02:48:13;;;;;;;22.95;11.77;;;;;;;;;;4956436;28;20137;-63
2022/03/08 02:50:40;;;;;;;22.00;12.70;;;;;;;;;;4954992;28;20077;-63
2022/03/08 02:53:07;;;;;;;25.55;13.77;;;;;;;;;;4955831;28;20059;-63
2022/03/08 02:55:37;;;;;;;24.42;12.77;;;;;;;;;;4956443;29;20055;-62
2022/03/08 02:58:05;;;;;;;22.70;11.85;;;;;;;;;;4955321;28;20047;-62
2022/03/08 03:00:34;;;;;;;24.58;12.07;;;;;;;;;;4956207;28;20077;-63
2022/03/08 03:03:01;;;;;;;21.08;11.00;;;;;;;;;;4955629;28;20051;-62
2022/03/08 03:05:29;;;;;;;20.80;11.85;;;;;;;;;;4955603;28;20136;-62
2022/03/08 03:07:56;;;;;;;23.10;12.52;;;;;;;;;;4955840;28;20519;-62
2022/03/08 03:10:24;;;;;;;24.40;12.60;;;;;;;;;;4956203;28;20057;-62
2022/03/08 03:12:55;;;;;;;25.55;11.93;;;;;;;;;;4955842;28;20637;-60
2022/03/08 03:15:23;;;;;;;23.40;12.73;;;;;;;;;;4956022;28;20051;-62
2022/03/08 03:17:50;;;;;;;22.20;11.68;;;;;;;;;;4955225;29;20051;-62
2022/03/08 03:20:19;;;;;;;22.15;11.75;;;;;;;;;;4955523;28;20496;-62
2022/03/08 03:22:46;;;;;;;25.80;12.90;;;;;;;;;;4955374;28;20420;-62
2022/03/08 03:25:13;;;;;;;21.40;11.82;;;;;;;;;;4955795;28;20497;-62
2022/03/08 03:27:41;;;;;;;21.58;11.68;;;;;;;;;;4955065;28;20051;-62
2022/03/08 03:30:12;;;;;;;21.75;12.23;;;;;;;;;;4954938;28;20062;-62
2022/03/08 03:32:40;;;;;;;24.42;12.60;;;;;;;;;;4955056;28;20051;-62
2022/03/08 03:35:08;;;;;;;20.55;11.27;;;;;;;;;;4955517;28;20051;-62
2022/03/08 03:37:36;;;;;;;22.33;11.73;;;;;;;;;;4954690;28;20051;-62
2022/03/08 03:40:04;;;;;;;22.20;12.23;;;;;;;;;;4955117;28;20066;-62
2022/03/08 03:42:31;;;;;;;23.85;12.30;;;;;;;;;;4954867;28;20054;-61
2022/03/08 03:44:58;;;;;;;22.48;11.07;;;;;;;;;;4954776;28;20576;-62
2022/03/08 03:47:26;;;;;;;23.83;12.52;;;;;;;;;;4954473;28;20059;-61
2022/03/08 03:49:53;;;;;;;24.02;12.43;;;;;;;;;;4954712;28;20055;-62
2022/03/08 03:52:20;;;;;;;23.80;12.05;;;;;;;;;;4954910;28;20051;-62
2022/03/08 03:54:47;;;;;;;23.63;12.48;;;;;;;;;;4954861;28;20057;-62
2022/03/08 03:57:14;;;;;;;21.70;12.57;;;;;;;;;;4954346;28;20653;-62
2022/03/08 03:59:41;;;;;;;21.90;12.10;;;;;;;;;;4954755;28;20055;-62
2022/03/08 04:02:08;;;;;;;21.15;11.32;;;;;;;;;;4954494;28;20055;-62
2022/03/08 04:04:37;;;;;;;23.55;12.18;;;;;;;;;;4954932;28;20138;-61
2022/03/08 04:07:04;;;;;;;21.15;11.48;;;;;;;;;;4954583;28;20468;-61
2022/03/08 04:09:31;;;;;;;23.27;11.20;;;;;;;;;;4954685;28;20098;-62
2022/03/08 04:11:58;;;;;;;23.15;11.48;;;;;;;;;;4954700;28;20051;-62
2022/03/08 04:14:26;;;;;;;22.58;11.93;;;;;;;;;;4954318;28;20138;-63
2022/03/08 04:16:53;;;;;;;23.52;11.73;;;;;;;;;;4954307;28;20054;-63
2022/03/08 04:19:20;;;;;;;20.33;11.93;;;;;;;;;;4953996;28;20054;-63
2022/03/08 04:21:48;;;;;;;21.42;11.70;;;;;;;;;;4954960;28;20051;-63
2022/03/08 04:24:15;;;;;;;21.85;12.35;;;;;;;;;;4954289;28;20055;-63
2022/03/08 04:26:42;;;;;;;23.58;11.75;;;;;;;;;;4954226;28;20047;-63
2022/03/08 04:29:09;;;;;;;20.52;12.25;;;;;;;;;;4953915;28;20051;-63
2022/03/08 04:31:36;;;;;;;25.85;12.63;;;;;;;;;;4954210;28;20061;-63
2022/03/08 04:34:03;;;;;;;22.98;12.60;;;;;;;;;;4954172;28;20053;-63
2022/03/08 04:36:30;;;;;;;21.73;10.75;;;;;;;;;;4954109;28;20461;-63
2022/03/08 04:38:59;;;;;;;21.95;11.25;;;;;;;;;;4954229;28;20055;-62
2022/03/08 04:41:26;;;;;;;20.88;10.75;;;;;;;;;;4954430;28;20417;-63
2022/03/08 04:43:53;;;;;;;21.65;11.23;;;;;;;;;;4954136;28;20453;-63
2022/03/08 04:46:20;;;;;;;23.23;12.70;;;;;;;;;;4953908;28;20051;-63
2022/03/08 04:48:47;;;;;;;23.88;12.50;;;;;;;;;;4954491;28;20052;-63
2022/03/08 04:51:14;;;;;;;21.45;11.90;;;;;;;;;;4954329;28;20047;-62
2022/03/08 04:53:42;;;;;;;23.00;12.50;;;;;;;;;;4954408;28;20058;-63
2022/03/08 04:56:10;;;;;;;21.38;11.75;;;;;;;;;;4954561;28;20625;-63
2022/03/08 04:58:37;;;;;;;23.95;12.35;;;;;;;;;;4954236;28;20051;-63
2022/03/08 05:01:04;;;;;;;23.05;11.48;;;;;;;;;;4954360;28;20519;-63
2022/03/08 05:03:31;;;;;;;25.50;12.48;;;;;;;;;;4954157;28;20051;-63
2022/03/08 05:05:58;;;;;;;24.20;12.65;;;;;;;;;;4954852;28;20051;-62
2022/03/08 05:08:25;;;;;;;20.75;11.82;;;;;;;;;;4954722;28;20113;-61
2022/03/08 05:10:52;;;;;;;23.25;13.20;;;;;;;;;;4954890;28;20081;-62
2022/03/08 05:13:21;;;;;;;23.92;13.30;;;;;;;;;;4954802;28;20055;-63
2022/03/08 05:15:48;;;;;;;25.73;13.02;;;;;;;;;;4957712;28;20483;-63
2022/03/08 05:18:16;;;;;;;31.08;13.98;;;;;;;;;;4957856;28;20142;-63
2022/03/08 05:20:43;;;;;;;30.25;14.10;;;;;;;;;;4958103;28;20098;-63
2022/03/08 05:23:10;;;;;;;26.00;13.00;;;;;;;;;;4958281;28;20455;-62
2022/03/08 05:25:37;;;;;;;20.63;11.15;;;;;;;;;;4958582;28;20050;-63
2022/03/08 05:28:05;;;;;;;24.63;12.38;;;;;;;;;;4957324;28;20225;-63
2022/03/08 05:30:33;;;;;;;23.13;11.95;;;;;;;;;;4957873;28;20055;-63
2022/03/08 05:33:01;;;;;;;25.17;12.07;;;;;;;;;;4957619;28;20394;-63
2022/03/08 05:35:28;;;;;;;23.85;11.88;;;;;;;;;;4957369;28;20501;-63
2022/03/08 05:37:55;;;;;;;24.08;11.93;;;;;;;;;;4957254;28;20094;-63
2022/03/08 05:40:22;;;;;;;24.98;12.35;;;;;;;;;;4957167;28;20500;-63
2022/03/08 05:42:49;;;;;;;21.13;11.00;;;;;;;;;;4961703;28;20432;-62
2022/03/08 05:45:16;;;;;;;24.73;12.70;;;;;;;;;;4957617;28;20475;-63
2022/03/08 05:47:44;;;;;;;23.77;12.23;;;;;;;;;;4956838;29;20062;-63
2022/03/08 05:50:13;;;;;;;21.25;11.75;;;;;;;;;;4957393;28;20052;-63
2022/03/08 05:52:40;;;;;;;22.85;12.00;;;;;;;;;;4957652;28;20051;-63
2022/03/08 05:55:08;;;;;;;21.30;11.80;;;;;;;;;;4957859;28;20062;-63
2022/03/08 05:57:35;;;;;;;26.05;12.23;;;;;;;;;;4956978;28;20057;-63
2022/03/08 06:00:02;;;;;;;21.88;11.98;;;;;;;;;;4957170;28;20047;-62
2022/03/08 06:02:29;;;;;;;27.00;12.20;;;;;;;;;;4957328;28;20051;-63
2022/03/08 06:04:57;;;;;;;23.65;12.30;;;;;;;;;;4957099;28;20047;-62
2022/03/08 06:07:25;;;;;;;28.25;13.13;;;;;;;;;;4957237;28;20058;-63
2022/03/08 06:09:52;;;;;;;23.50;12.23;;;;;;;;;;4957110;28;20114;-63
2022/03/08 06:12:19;;;;;;;24.02;12.68;;;;;;;;;;4957278;28;20083;-63
2022/03/08 06:14:46;;;;;;;20.35;11.10;;;;;;;;;;4956979;28;20138;-62
2022/03/08 06:17:13;;;;;;;26.45;12.95;;;;;;;;;;4956649;28;20055;-62
2022/03/08 06:19:40;;;;;;;26.88;12.85;;;;;;;;;;4956782;28;20057;-62
2022/03/08 06:22:08;;;;;;;26.65;12.38;;;;;;;;;;4957319;28;20129;-62
2022/03/08 06:24:35;;;;;;;25.55;12.10;;;;;;;;;;4956670;28;20071;-62
2022/03/08 06:27:03;;;;;;;25.52;12.65;;;;;;;;;;4956653;28;20104;-63
2022/03/08 06:29:30;;;;;;;25.88;12.07;;;;;;;;;;4956556;28;20143;-63
2022/03/08 06:31:57;;;;;;;25.10;11.77;;;;;;;;;;4956605;28;20420;-63
2022/03/08 06:34:24;;;;;;;23.55;10.88;;;;;;;;;;4956519;28;20138;-62
2022/03/08 06:36:51;;;;;;;23.58;12.15;;;;;;;;;;4956430;28;20050;-62
2022/03/08 06:39:19;;;;;;;24.20;12.15;;;;;;;;;;4956456;28;20051;-63
2022/03/08 06:41:46;;;;;;;21.15;11.60;;;;;;;;;;4957208;28;20058;-63
2022/03/08 06:44:13;;;;;;;24.88;12.35;;;;;;;;;;4956854;28;20130;-63
2022/03/08 06:46:44;;;;;;;25.35;12.68;;;;;;;;;;4956405;28;20047;-62
2022/03/08 06:49:11;;;;;;;27.23;12.02;;;;;;;;;;4956734;28;20058;-63
2022/03/08 06:51:38;;;;;;;24.15;10.95;;;;;;;;;;4956441;28;20130;-61
2022/03/08 06:54:06;;;;;;;28.40;13.00;;;;;;;;;;4956289;28;20055;-63
2022/03/08 06:56:35;;;;;;;21.20;11.50;;;;;;;;;;4956256;28;20473;-64
2022/03/08 06:59:02;;;;;;;27.13;12.27;;;;;;;;;;4956025;28;20047;-63
2022/03/08 07:01:29;;;;;;;21.70;11.07;;;;;;;;;;4956919;28;20058;-62
2022/03/08 07:03:56;;;;;;;20.33;10.23;;;;;;;;;;4955871;28;20086;-62
2022/03/08 07:06:23;;;;;;;19.65;10.60;;;;;;;;;;4956383;28;20065;-63
2022/03/08 07:08:51;;;;;;;19.88;10.80;;;;;;;;;;4955498;28;20520;-63
2022/03/08 07:11:18;;;;;;;20.08;9.88;;;;;;;;;;4955865;28;20149;-63
2022/03/08 07:13:46;;;;;;;21.98;10.35;;;;;;;;;;4955979;28;20047;-63
2022/03/08 07:16:13;;;;;;;18.63;10.60;;;;;;;;;;4956126;28;20062;-62
2022/03/08 07:18:40;;;;;;;20.52;9.75;;;;;;;;;;4956086;28;20047;-63
2022/03/08 07:21:08;;;;;;;22.77;11.85;;;;;;;;;;4955555;28;20051;-63
2022/03/08 07:23:35;;;;;;;20.33;9.98;;;;;;;;;;4956094;28;20473;-62
2022/03/08 07:26:02;;;;;;;24.27;10.82;;;;;;;;;;4955509;28;20055;-63
2022/03/08 07:28:29;;;;;;;18.83;10.45;;;;;;;;;;4955981;28;20105;-63
2022/03/08 07:30:57;;;;;;;17.50;10.30;;;;;;;;;;4955552;28;20130;-63
2022/03/08 07:33:24;;;;;;;20.23;9.90;;;;;;;;;;4955574;28;20408;-63
2022/03/08 07:35:51;;;;;;;19.13;9.35;;;;;;;;;;4955456;28;20054;-63
2022/03/08 07:38:18;;;;;;;18.17;10.23;;;;;;;;;;4955639;28;20062;-63
2022/03/08 07:40:45;;;;;;;17.88;9.52;;;;;;;;;;4955335;28;20051;-63
2022/03/08 07:43:12;;;;;;;18.75;9.85;;;;;;;;;;4955414;28;20051;-63
2022/03/08 07:45:42;;;;;;;19.02;9.88;;;;;;;;;;4954483;28;20055;-62
2022/03/08 07:48:10;;;;;;;17.98;9.95;;;;;;;;;;4955341;29;20063;-63
2022/03/08 07:50:37;;;;;;;18.65;10.45;;;;;;;;;;4955995;29;20083;-62
2022/03/08 07:53:05;;;;;;;21.23;11.63;;;;;;;;;;4956028;28;20055;-63
2022/03/08 07:55:32;;;;;;;28.02;14.80;;;;;;;;;;4956040;28;20051;-62
2022/03/08 07:58:00;;;;;;;20.52;11.98;;;;;;;;;;4957188;28;20065;-62
2022/03/08 08:00:28;;;;;;;18.20;10.55;;;;;;;;;;4956532;28;20091;-62
2022/03/08 08:02:55;;;;;;;22.50;10.38;;;;;;;;;;4955397;28;20508;-63
2022/03/08 08:05:24;;;;;;;17.80;9.48;;;;;;;;;;4955202;28;20059;-63
2022/03/08 08:07:51;;;;;;;20.38;10.68;;;;;;;;;;4955137;29;20047;-63
2022/03/08 08:10:18;;;;;;;19.35;9.77;;;;;;;;;;4952500;29;20055;-63
2022/03/08 08:12:45;;;;;;;17.95;9.95;;;;;;;;;;4953409;28;20465;-62
2022/03/08 08:15:12;;;;;;;19.95;10.93;;;;;;;;;;4968171;23;20966;-64
2022/03/08 08:17:39;;;;;;;20.55;10.18;;;;;;;;;;4970138;28;20073;-63
2022/03/08 08:20:08;;;;;;;24.55;12.90;;;;;;;;;;4971113;28;20395;-64
2022/03/08 08:22:36;;;;;;;22.73;11.30;;;;;;;;;;4971675;28;20102;-63
2022/03/08 08:25:04;;;;;;;18.58;10.90;;;;;;;;;;4971464;28;20088;-64
2022/03/08 08:27:31;;;;;;;19.25;10.23;;;;;;;;;;4971473;28;20051;-63
2022/03/08 08:29:58;;;;;;;18.45;9.25;;;;;;;;;;4970992;28;20383;-63
2022/03/08 08:32:25;;;;;;;17.38;9.07;;;;;;;;;;4971108;28;20042;-63
2022/03/08 08:34:52;;;;;;;18.42;9.35;;;;;;;;;;4971479;28;20054;-63
2022/03/08 08:37:19;;;;;;;19.27;10.02;;;;;;;;;;4971653;28;20130;-62
2022/03/08 08:39:48;;;;;;;17.27;8.95;;;;;;;;;;4971171;28;20046;-64
2022/03/08 08:42:15;;;;;;;16.60;9.50;;;;;;;;;;4971973;28;20054;-63
2022/03/08 08:44:42;;;;;;;16.67;9.80;;;;;;;;;;4971052;28;20058;-64
2022/03/08 08:47:09;;;;;;;16.90;9.43;;;;;;;;;;4971432;28;20050;-64
2022/03/08 08:49:36;;;;;;;19.83;10.07;;;;;;;;;;4974545;28;20129;-64
2022/03/08 08:52:03;;;;;;;20.35;10.18;;;;;;;;;;4975497;28;20050;-63
2022/03/08 08:54:30;;;;;;;18.88;10.60;;;;;;;;;;4975031;28;20051;-66
2022/03/08 08:56:58;;;;;;;17.05;9.88;;;;;;;;;;4975153;28;20070;-67
2022/03/08 08:59:25;;;;;;;16.90;9.15;;;;;;;;;;4974857;28;20396;-63
2022/03/08 09:01:52;;;;;;;19.38;9.73;;;;;;;;;;4975504;28;20074;-63
2022/03/08 09:04:19;;;;;;;14.85;7.50;;;;;;;;;;4975497;28;20047;-64
2022/03/08 09:06:46;;;;;;;13.95;7.55;;;;;;;;;;4975977;28;20059;-64
2022/03/08 09:09:15;;;;;;;12.63;7.07;;;;;;;;;;4975365;28;20050;-64
2022/03/08 09:11:42;;;;;;;12.00;7.20;;;;;;;;;;4976237;28;20428;-63
2022/03/08 09:14:10;;;;;;;11.13;7.10;;;;;;;;;;4975712;28;20047;-63
2022/03/08 09:16:38;;;;;;;14.73;6.68;;;;;;;;;;4975462;28;20090;-64
2022/03/08 09:19:05;;;;;;;14.23;7.75;;;;;;;;;;4975805;28;20111;-63
2022/03/08 09:21:32;;;;;;;12.77;7.35;;;;;;;;;;4975087;28;20047;-64
2022/03/08 09:23:59;;;;;;;9.55;5.70;;;;;;;;;;4974992;28;20635;-63
2022/03/08 09:26:26;;;;;;;11.10;6.22;;;;;;;;;;4974907;28;20089;-63
2022/03/08 09:28:53;;;;;;;11.65;5.60;;;;;;;;;;4975137;28;20047;-63
2022/03/08 09:31:21;;;;;;;10.05;6.03;;;;;;;;;;4974714;28;20042;-64
2022/03/08 09:33:48;;;;;;;12.27;5.93;;;;;;;;;;4975148;28;20051;-63
2022/03/08 09:36:15;;;;;;;11.68;5.15;;;;;;;;;;4974839;28;20054;-64
2022/03/08 09:38:42;;;;;;;12.95;5.00;;;;;;;;;;4974366;28;20054;-64
2022/03/08 09:41:11;;;;;;;11.35;6.32;;;;;;;;;;4974993;28;20431;-63
2022/03/08 09:43:39;;;;;;;11.43;5.63;;;;;;;;;;4974748;28;20058;-63
2022/03/08 09:46:07;;;;;;;11.27;5.38;;;;;;;;;;4974741;28;20043;-63
2022/03/08 09:48:35;;;;;;;10.30;5.57;;;;;;;;;;4974491;28;20057;-63
2022/03/08 09:51:04;;;;;;;10.38;5.90;;;;;;;;;;4974724;28;20264;-63
2022/03/08 09:53:32;;;;;;;9.68;5.25;;;;;;;;;;4974928;28;20518;-63
2022/03/08 09:55:59;;;;;;;12.85;5.90;;;;;;;;;;4974878;28;20522;-64
2022/03/08 09:58:26;;;;;;;11.73;6.40;;;;;;;;;;4974184;28;20428;-63
2022/03/08 10:00:58;;;;;;;11.63;5.95;;;;;;;;;;4974217;28;20122;-63
2022/03/08 10:03:33;;;;;;;13.90;6.28;;;;;;;;;;4974472;28;20057;-63
2022/03/08 10:06:01;;;;;;;10.43;5.72;;;;;;;;;;4974324;28;20435;-63
2022/03/08 10:08:28;;;;;;;8.40;5.00;;;;;;;;;;4974122;28;20111;-63
2022/03/08 10:10:58;;;;;;;8.68;4.78;;;;;;;;;;4974187;28;20055;-63
2022/03/08 10:13:28;;;;;;;10.70;5.80;;;;;;;;;;4974455;28;20404;-64
2022/03/08 10:16:16;;;;;;;13.65;5.57;;;;;;;;;;4974030;28;20051;-64
2022/03/08 10:18:45;;;;;;;10.02;4.88;;;;;;;;;;4973268;28;20049;-64
2022/03/08 10:21:34;;;;;;;9.32;5.47;;;;;;;;;;4973443;28;20580;-63
2022/03/08 10:24:03;;;;;;;9.85;4.90;;;;;;;;;;4973522;28;20145;-63
2022/03/08 10:26:32;;;;;;;7.80;4.90;;;;;;;;;;4974130;28;20479;-63
2022/03/08 10:29:00;;;;;;;12.32;5.22;;;;;;;;;;4973852;28;20057;-64
2022/03/08 10:31:27;;;;;;;11.20;4.78;;;;;;;;;;4973664;28;20129;-64
2022/03/08 10:34:05;;;;;;;11.10;5.82;;;;;;;;;;4973596;28;20050;-63
2022/03/08 10:36:35;;;;;;;11.38;5.40;;;;;;;;;;4973590;28;20412;-63
2022/03/08 10:39:20;;;;;;;7.88;4.72;;;;;;;;;;4972839;28;20113;-64
2022/03/08 10:41:49;;;;;;;7.63;4.55;;;;;;;;;;4973167;28;20054;-63
2022/03/08 10:44:16;;;;;;;10.48;4.88;;;;;;;;;;4972974;28;20505;-63
2022/03/08 10:46:43;;;;;;;8.05;4.30;;;;;;;;;;4972609;28;20061;-65
2022/03/08 10:49:14;;;;;;;9.98;4.55;;;;;;;;;;4972672;28;20492;-63
2022/03/08 10:51:42;;;;;;;9.60;4.47;;;;;;;;;;4973397;28;20057;-64
2022/03/08 10:54:13;;;;;;;10.30;4.80;;;;;;;;;;4972684;28;20500;-64
2022/03/08 10:56:45;;;;;;;7.68;4.68;;;;;;;;;;4972566;28;20447;-65
2022/03/08 10:59:15;;;;;;;9.63;4.93;;;;;;;;;;4972385;28;20055;-65
2022/03/08 11:01:42;;;;;;;10.02;4.88;;;;;;;;;;4972621;28;20055;-64
2022/03/08 11:04:18;;;;;;;10.20;5.43;;;;;;;;;;4972582;28;20409;-65
2022/03/08 11:06:50;;;;;;;8.07;4.40;;;;;;;;;;4972457;28;20154;-64
2022/03/08 11:09:17;;;;;;;7.63;4.25;;;;;;;;;;4972441;28;20153;-66
2022/03/08 11:11:44;;;;;;;10.63;5.22;;;;;;;;;;4971536;28;20054;-64
2022/03/08 11:14:12;;;;;;;7.90;4.20;;;;;;;;;;4972373;28;20355;-65
2022/03/08 11:16:40;;;;;;;9.48;4.20;;;;;;;;;;4972330;28;20049;-64
2022/03/08 11:19:07;;;;;;;9.15;4.43;;;;;;;;;;4972268;28;20047;-64
2022/03/08 11:21:36;;;;;;;8.80;4.25;;;;;;;;;;4972467;28;20449;-64
2022/03/08 11:24:05;;;;;;;13.02;4.45;;;;;;;;;;4972199;28;20105;-64
2022/03/08 11:26:32;;;;;;;7.75;4.68;;;;;;;;;;4973038;28;20455;-64
2022/03/08 11:29:01;;;;;;;8.57;5.07;;;;;;;;;;4972783;28;20130;-65
2022/03/08 11:31:35;;;;;;;7.88;3.80;;;;;;;;;;4973025;28;20063;-66
2022/03/08 11:34:09;;;;;;;8.90;4.50;;;;;;;;;;4971810;28;20057;-65
2022/03/08 11:36:38;;;;;;;9.25;4.03;;;;;;;;;;4971443;28;20109;-65
2022/03/08 11:39:23;;;;;;;9.80;5.10;;;;;;;;;;4971722;28;20074;-65
2022/03/08 11:41:52;;;;;;;10.73;5.28;;;;;;;;;;4971949;28;20082;-65
2022/03/08 11:44:39;;;;;;;10.85;5.65;;;;;;;;;;4971707;28;20047;-65
2022/03/08 11:47:11;;;;;;;9.73;5.70;;;;;;;;;;4965267;28;20672;-66
2022/03/08 11:49:44;;;;;;;10.45;5.28;;;;;;;;;;4971660;28;20517;-67
2022/03/08 11:52:14;;;;;;;9.55;5.70;;;;;;;;;;4971530;28;20053;-65
2022/03/08 11:54:53;;;;;;;10.27;5.63;;;;;;;;;;4972207;28;20411;-64
2022/03/08 11:57:54;;;;;;;9.77;5.85;;;;;;;;;;4971842;28;20047;-65
2022/03/08 12:00:24;;;;;;;11.13;5.78;;;;;;;;;;4971504;28;20046;-64
2022/03/08 12:02:53;;;;;;;10.57;6.47;;;;;;;;;;4971390;28;20061;-65
2022/03/08 12:05:41;;;;;;;10.75;5.75;;;;;;;;;;4971757;28;20059;-66
2022/03/08 12:08:51;;;;;;;9.65;5.55;;;;;;;;;;4971951;28;20419;-64
2022/03/08 12:11:42;;;;;;;11.75;6.07;;;;;;;;;;4972185;28;20523;-65
2022/03/08 12:14:15;;;;;;;10.48;5.68;;;;;;;;;;4971542;28;20057;-65
2022/03/08 12:16:44;;;;;;;10.70;5.50;;;;;;;;;;4970885;28;20051;-66
2022/03/08 12:19:13;;;;;;;11.10;6.20;;;;;;;;;;4971072;28;20055;-66
2022/03/08 12:21:42;;;;;;;9.93;5.53;;;;;;;;;;4971195;28;20049;-65
2022/03/08 12:24:17;;;;;;;12.27;6.53;;;;;;;;;;4971277;28;20049;-65
2022/03/08 12:26:59;;;;;;;11.68;6.57;;;;;;;;;;4971240;28;20043;-65
2022/03/08 12:29:28;;;;;;;10.32;5.63;;;;;;;;;;4971291;28;20051;-65
2022/03/08 12:32:35;;;;;;;12.23;6.13;;;;;;;;;;4971675;28;20101;-65
2022/03/08 12:35:13;;;;;;;9.52;5.82;;;;;;;;;;4971221;28;20055;-65
2022/03/08 12:37:47;;;;;;;10.70;5.97;;;;;;;;;;4970227;28;20211;-64
2022/03/08 12:40:30;;;;;;;11.60;6.28;;;;;;;;;;4971328;28;20082;-64
2022/03/08 12:43:00;;;;;;;12.27;6.28;;;;;;;;;;4971267;28;20054;-66
2022/03/08 12:45:28;;;;;;;8.02;4.85;;;;;;;;;;4971582;28;20051;-65
2022/03/08 12:47:58;;;;;;;13.63;6.93;;;;;;;;;;4971226;28;20053;-66
2022/03/08 12:50:29;;;;;;;13.27;6.33;;;;;;;;;;4971451;28;20133;-67
2022/03/08 12:52:57;;;;;;;12.05;6.95;;;;;;;;;;4971439;28;20251;-67
2022/03/08 12:55:27;;;;;;;14.63;6.70;;;;;;;;;;4971688;28;20496;-67
2022/03/08 12:57:55;;;;;;;13.10;6.18;;;;;;;;;;4971094;28;20046;-65
2022/03/08 13:00:30;;;;;;;12.50;6.20;;;;;;;;;;4971123;28;20047;-65
2022/03/08 13:02:58;;;;;;;12.05;6.45;;;;;;;;;;4971338;28;20047;-66
2022/03/08 13:05:28;;;;;;;10.43;5.60;;;;;;;;;;4970892;28;20054;-66
2022/03/08 13:07:55;;;;;;;10.57;5.97;;;;;;;;;;4971152;28;20051;-67
2022/03/08 13:10:23;;;;;;;11.25;6.35;;;;;;;;;;4971154;28;20069;-66
2022/03/08 13:12:51;;;;;;;12.25;6.28;;;;;;;;;;4971834;28;20058;-64
2022/03/08 13:15:21;;;;;;;10.95;6.38;;;;;;;;;;4971142;28;20106;-64
2022/03/08 13:17:52;;;;;;;11.93;6.53;;;;;;;;;;4970934;28;20137;-65
2022/03/08 13:20:27;;;;;;;11.30;6.53;;;;;;;;;;4971076;28;20130;-64
2022/03/08 13:22:55;;;;;;;11.63;7.45;;;;;;;;;;4971177;28;20512;-65
2022/03/08 13:25:22;;;;;;;13.38;7.45;;;;;;;;;;4971287;28;20094;-65
2022/03/08 13:27:51;;;;;;;10.73;6.63;;;;;;;;;;4970972;28;20090;-65
2022/03/08 13:30:19;;;;;;;11.63;7.13;;;;;;;;;;4970858;28;20047;-64
2022/03/08 13:32:46;;;;;;;11.35;5.82;;;;;;;;;;4971231;28;20082;-64
2022/03/08 13:35:16;;;;;;;11.25;7.50;;;;;;;;;;4973875;28;20042;-65
2022/03/08 13:37:47;;;;;;;14.63;10.07;;;;;;;;;;4974278;28;20097;-65
2022/03/08 13:40:33;;;;;;;16.88;11.25;;;;;;;;;;4975058;28;20050;-65
2022/03/08 13:43:01;;;;;;;12.02;7.13;;;;;;;;;;4974952;28;20120;-65
2022/03/08 13:45:28;;;;;;;22.80;14.32;;;;;;;;;;4974685;28;20440;-63
2022/03/08 13:47:56;;;;;;;69.28;37.35;;;;;;;;;;4974898;28;20452;-64
2022/03/08 13:50:26;;;;;;;16.60;9.02;;;;;;;;;;4973968;28;20050;-64
2022/03/08 13:52:54;;;;;;;17.88;9.75;;;;;;;;;;4974357;28;20078;-65
2022/03/08 13:55:28;;;;;;;12.68;7.20;;;;;;;;;;4974480;28;20057;-65
2022/03/08 13:57:57;;;;;;;10.65;6.32;;;;;;;;;;4974167;28;20078;-66
2022/03/08 14:00:28;;;;;;;12.13;6.82;;;;;;;;;;4973924;28;20057;-65
2022/03/08 14:02:56;;;;;;;13.35;7.15;;;;;;;;;;4974436;28;20051;-65
2022/03/08 14:05:25;;;;;;;10.73;6.88;;;;;;;;;;4974281;28;20066;-65
2022/03/08 14:07:57;;;;;;;12.13;6.72;;;;;;;;;;4974101;28;20561;-65
2022/03/08 14:17:05;;;;;;;9.27;4.75;;;;;;;;;;5264983;23;20527;-82
2022/03/08 14:19:45;;;;;;;9.63;5.38;;;;;;;;;;4999439;28;20060;-81
2022/03/08 14:22:13;;;;;;;9.32;5.20;;;;;;;;;;4998745;28;20047;-81
2022/03/08 14:24:40;;;;;;;8.55;5.47;;;;;;;;;;5000833;28;20085;-81
2022/03/08 14:27:09;;;;;;;10.23;4.75;;;;;;;;;;5000973;28;20492;-82
2022/03/08 14:29:38;;;;;;;9.73;4.90;;;;;;;;;;5003064;28;20050;-80
2022/03/08 14:32:06;;;;;;;8.85;4.78;;;;;;;;;;5001501;28;20049;-81
2022/03/08 14:34:34;;;;;;;8.90;4.85;;;;;;;;;;5000037;28;20058;-81
2022/03/08 14:37:03;;;;;;;10.23;5.57;;;;;;;;;;5001643;28;20093;-81
2022/03/08 14:39:33;;;;;;;10.07;5.43;;;;;;;;;;5005540;28;20050;-81